sensor_id;sensor_type;location;lat;lon;timestamp;P1;durP1;ratioP1;P2;durP2;ratioP2
42294;SDS011;27947;47.556;18.718;2022-10-15T00:00:24;12.70;;;6.03;;
42294;SDS011;27947;47.556;18.718;2022-10-15T00:02:50;13.93;;;6.15;;
42294;SDS011;27947;47.556;18.718;2022-10-15T00:05:15;18.33;;;6.00;;
42294;SDS011;27947;47.556;18.718;2022-10-15T00:07:40;14.77;;;6.63;;
42294;SDS011;27947;47.556;18.718;2022-10-15T00:10:06;15.93;;;6.78;;
42294;SDS011;27947;47.556;18.718;2022-10-15T00:12:31;13.38;;;6.28;;
42294;SDS011;27947;47.556;18.718;2022-10-15T00:14:57;16.38;;;6.82;;
42294;SDS011;27947;47.556;18.718;2022-10-15T00:17:22;13.48;;;5.47;;
42294;SDS011;27947;47.556;18.718;2022-10-15T00:19:47;10.38;;;5.82;;
42294;SDS011;27947;47.556;18.718;2022-10-15T00:22:13;12.60;;;5.57;;
42294;SDS011;27947;47.556;18.718;2022-10-15T00:24:38;11.05;;;6.18;;
42294;SDS011;27947;47.556;18.718;2022-10-15T00:27:03;14.13;;;5.63;;
42294;SDS011;27947;47.556;18.718;2022-10-15T00:29:29;12.85;;;5.90;;
42294;SDS011;27947;47.556;18.718;2022-10-15T00:31:54;11.13;;;6.55;;
42294;SDS011;27947;47.556;18.718;2022-10-15T00:34:20;9.02;;;5.40;;
42294;SDS011;27947;47.556;18.718;2022-10-15T00:36:45;14.95;;;6.65;;
42294;SDS011;27947;47.556;18.718;2022-10-15T00:39:13;13.35;;;6.43;;
42294;SDS011;27947;47.556;18.718;2022-10-15T00:41:40;12.40;;;5.22;;
42294;SDS011;27947;47.556;18.718;2022-10-15T00:49:45;17.50;;;5.50;;
42294;SDS011;27947;47.556;18.718;2022-10-15T00:52:14;10.02;;;5.68;;
42294;SDS011;27947;47.556;18.718;2022-10-15T00:54:41;15.02;;;5.97;;
42294;SDS011;27947;47.556;18.718;2022-10-15T00:57:08;14.70;;;6.97;;
42294;SDS011;27947;47.556;18.718;2022-10-15T00:59:35;9.80;;;5.00;;
42294;SDS011;27947;47.556;18.718;2022-10-15T01:02:02;13.02;;;5.72;;
42294;SDS011;27947;47.556;18.718;2022-10-15T01:04:28;9.35;;;5.00;;
42294;SDS011;27947;47.556;18.718;2022-10-15T01:06:54;11.35;;;5.25;;
42294;SDS011;27947;47.556;18.718;2022-10-15T01:09:20;10.85;;;5.03;;
42294;SDS011;27947;47.556;18.718;2022-10-15T01:11:48;14.23;;;5.75;;
42294;SDS011;27947;47.556;18.718;2022-10-15T01:27:34;18.65;;;5.38;;
42294;SDS011;27947;47.556;18.718;2022-10-15T01:30:10;11.82;;;4.70;;
42294;SDS011;27947;47.556;18.718;2022-10-15T01:32:37;9.85;;;4.30;;
42294;SDS011;27947;47.556;18.718;2022-10-15T01:37:43;11.30;;;4.25;;
42294;SDS011;27947;47.556;18.718;2022-10-15T01:40:32;10.90;;;4.93;;
42294;SDS011;27947;47.556;18.718;2022-10-15T01:42:56;9.23;;;4.35;;
42294;SDS011;27947;47.556;18.718;2022-10-15T01:45:39;9.23;;;3.65;;
42294;SDS011;27947;47.556;18.718;2022-10-15T01:48:13;8.52;;;4.63;;
42294;SDS011;27947;47.556;18.718;2022-10-15T01:50:46;9.93;;;4.65;;
42294;SDS011;27947;47.556;18.718;2022-10-15T01:53:14;8.23;;;4.50;;
42294;SDS011;27947;47.556;18.718;2022-10-15T01:55:40;16.88;;;4.57;;
42294;SDS011;27947;47.556;18.718;2022-10-15T01:58:06;11.23;;;4.80;;
42294;SDS011;27947;47.556;18.718;2022-10-15T02:00:34;11.57;;;5.00;;
42294;SDS011;27947;47.556;18.718;2022-10-15T02:03:02;11.23;;;3.95;;
42294;SDS011;27947;47.556;18.718;2022-10-15T02:05:29;9.55;;;4.40;;
42294;SDS011;27947;47.556;18.718;2022-10-15T02:07:57;11.10;;;5.38;;
42294;SDS011;27947;47.556;18.718;2022-10-15T02:10:42;10.48;;;5.05;;
42294;SDS011;27947;47.556;18.718;2022-10-15T02:13:23;10.35;;;4.32;;
42294;SDS011;27947;47.556;18.718;2022-10-15T02:21:15;9.13;;;3.95;;
42294;SDS011;27947;47.556;18.718;2022-10-15T02:26:10;9.85;;;5.13;;
42294;SDS011;27947;47.556;18.718;2022-10-15T02:28:37;8.02;;;4.70;;
42294;SDS011;27947;47.556;18.718;2022-10-15T02:31:03;11.38;;;4.75;;
42294;SDS011;27947;47.556;18.718;2022-10-15T02:33:29;11.98;;;4.68;;
42294;SDS011;27947;47.556;18.718;2022-10-15T02:35:55;11.18;;;4.95;;
42294;SDS011;27947;47.556;18.718;2022-10-15T02:38:22;9.05;;;4.65;;
42294;SDS011;27947;47.556;18.718;2022-10-15T02:40:48;22.13;;;6.00;;
42294;SDS011;27947;47.556;18.718;2022-10-15T02:43:15;9.40;;;4.45;;
42294;SDS011;27947;47.556;18.718;2022-10-15T02:45:42;12.27;;;4.75;;
42294;SDS011;27947;47.556;18.718;2022-10-15T02:48:08;9.05;;;4.05;;
42294;SDS011;27947;47.556;18.718;2022-10-15T02:50:33;8.45;;;4.07;;
42294;SDS011;27947;47.556;18.718;2022-10-15T02:52:59;9.57;;;4.72;;
42294;SDS011;27947;47.556;18.718;2022-10-15T02:55:25;10.70;;;4.95;;
42294;SDS011;27947;47.556;18.718;2022-10-15T02:57:50;11.15;;;4.65;;
42294;SDS011;27947;47.556;18.718;2022-10-15T03:00:15;10.45;;;4.75;;
42294;SDS011;27947;47.556;18.718;2022-10-15T03:02:43;10.57;;;4.97;;
42294;SDS011;27947;47.556;18.718;2022-10-15T03:05:09;9.98;;;4.68;;
42294;SDS011;27947;47.556;18.718;2022-10-15T03:07:35;8.60;;;4.20;;
42294;SDS011;27947;47.556;18.718;2022-10-15T03:10:01;10.18;;;4.68;;
42294;SDS011;27947;47.556;18.718;2022-10-15T03:12:27;12.40;;;5.45;;
42294;SDS011;27947;47.556;18.718;2022-10-15T03:14:53;10.35;;;4.72;;
42294;SDS011;27947;47.556;18.718;2022-10-15T03:17:18;11.20;;;5.53;;
42294;SDS011;27947;47.556;18.718;2022-10-15T03:19:43;9.82;;;4.97;;
42294;SDS011;27947;47.556;18.718;2022-10-15T03:22:09;8.93;;;4.53;;
42294;SDS011;27947;47.556;18.718;2022-10-15T03:24:44;9.80;;;4.88;;
42294;SDS011;27947;47.556;18.718;2022-10-15T03:27:10;13.95;;;4.50;;
42294;SDS011;27947;47.556;18.718;2022-10-15T03:29:36;9.82;;;5.05;;
42294;SDS011;27947;47.556;18.718;2022-10-15T03:32:02;10.70;;;5.25;;
42294;SDS011;27947;47.556;18.718;2022-10-15T03:34:27;12.05;;;4.95;;
42294;SDS011;27947;47.556;18.718;2022-10-15T03:36:53;10.65;;;5.15;;
42294;SDS011;27947;47.556;18.718;2022-10-15T03:39:18;10.90;;;5.28;;
42294;SDS011;27947;47.556;18.718;2022-10-15T03:41:44;13.85;;;6.05;;
42294;SDS011;27947;47.556;18.718;2022-10-15T03:44:12;11.27;;;4.68;;
42294;SDS011;27947;47.556;18.718;2022-10-15T03:46:43;13.48;;;5.32;;
42294;SDS011;27947;47.556;18.718;2022-10-15T03:49:08;10.80;;;5.63;;
42294;SDS011;27947;47.556;18.718;2022-10-15T03:51:34;11.75;;;6.00;;
42294;SDS011;27947;47.556;18.718;2022-10-15T03:54:05;9.73;;;5.45;;
42294;SDS011;27947;47.556;18.718;2022-10-15T03:56:37;10.32;;;5.32;;
42294;SDS011;27947;47.556;18.718;2022-10-15T03:59:20;10.50;;;5.15;;
42294;SDS011;27947;47.556;18.718;2022-10-15T04:01:53;10.48;;;5.10;;
42294;SDS011;27947;47.556;18.718;2022-10-15T04:04:19;17.05;;;5.60;;
42294;SDS011;27947;47.556;18.718;2022-10-15T04:06:44;13.73;;;7.07;;
42294;SDS011;27947;47.556;18.718;2022-10-15T04:09:14;9.13;;;4.93;;
42294;SDS011;27947;47.556;18.718;2022-10-15T04:11:40;9.88;;;4.88;;
42294;SDS011;27947;47.556;18.718;2022-10-15T04:14:06;9.80;;;5.18;;
42294;SDS011;27947;47.556;18.718;2022-10-15T04:16:32;10.23;;;4.95;;
42294;SDS011;27947;47.556;18.718;2022-10-15T04:19:01;12.32;;;6.20;;
42294;SDS011;27947;47.556;18.718;2022-10-15T04:21:26;10.35;;;5.25;;
42294;SDS011;27947;47.556;18.718;2022-10-15T04:23:56;13.35;;;5.95;;
42294;SDS011;27947;47.556;18.718;2022-10-15T04:26:33;12.80;;;5.40;;
42294;SDS011;27947;47.556;18.718;2022-10-15T04:28:59;14.45;;;5.93;;
42294;SDS011;27947;47.556;18.718;2022-10-15T04:31:25;10.15;;;5.35;;
42294;SDS011;27947;47.556;18.718;2022-10-15T04:33:51;10.00;;;5.22;;
42294;SDS011;27947;47.556;18.718;2022-10-15T04:36:16;11.63;;;4.93;;
42294;SDS011;27947;47.556;18.718;2022-10-15T04:38:47;13.45;;;5.85;;
42294;SDS011;27947;47.556;18.718;2022-10-15T04:41:18;9.32;;;5.22;;
42294;SDS011;27947;47.556;18.718;2022-10-15T04:43:58;14.57;;;5.95;;
42294;SDS011;27947;47.556;18.718;2022-10-15T04:46:24;12.05;;;5.43;;
42294;SDS011;27947;47.556;18.718;2022-10-15T04:48:51;12.07;;;5.10;;
42294;SDS011;27947;47.556;18.718;2022-10-15T04:51:21;13.20;;;6.00;;
42294;SDS011;27947;47.556;18.718;2022-10-15T04:54:00;12.15;;;5.63;;
42294;SDS011;27947;47.556;18.718;2022-10-15T04:56:27;12.30;;;5.03;;
42294;SDS011;27947;47.556;18.718;2022-10-15T04:58:53;12.38;;;5.10;;
42294;SDS011;27947;47.556;18.718;2022-10-15T05:01:19;12.60;;;5.63;;
42294;SDS011;27947;47.556;18.718;2022-10-15T05:04:11;9.77;;;5.35;;
42294;SDS011;27947;47.556;18.718;2022-10-15T05:06:38;12.30;;;6.30;;
42294;SDS011;27947;47.556;18.718;2022-10-15T05:09:14;13.55;;;6.78;;
42294;SDS011;27947;47.556;18.718;2022-10-15T05:11:45;10.23;;;5.35;;
42294;SDS011;27947;47.556;18.718;2022-10-15T05:14:11;11.93;;;5.75;;
42294;SDS011;27947;47.556;18.718;2022-10-15T05:16:37;11.32;;;5.68;;
42294;SDS011;27947;47.556;18.718;2022-10-15T05:19:04;9.77;;;5.28;;
42294;SDS011;27947;47.556;18.718;2022-10-15T05:21:31;13.23;;;6.13;;
42294;SDS011;27947;47.556;18.718;2022-10-15T05:24:00;15.95;;;5.95;;
42294;SDS011;27947;47.556;18.718;2022-10-15T05:26:48;9.52;;;4.68;;
42294;SDS011;27947;47.556;18.718;2022-10-15T05:29:14;14.13;;;5.40;;
42294;SDS011;27947;47.556;18.718;2022-10-15T05:31:39;12.85;;;6.05;;
42294;SDS011;27947;47.556;18.718;2022-10-15T05:34:12;19.05;;;6.90;;
42294;SDS011;27947;47.556;18.718;2022-10-15T05:36:55;13.30;;;5.60;;
42294;SDS011;27947;47.556;18.718;2022-10-15T05:39:20;12.02;;;5.10;;
42294;SDS011;27947;47.556;18.718;2022-10-15T05:41:46;13.20;;;5.47;;
42294;SDS011;27947;47.556;18.718;2022-10-15T05:44:12;9.77;;;5.03;;
42294;SDS011;27947;47.556;18.718;2022-10-15T05:46:37;13.68;;;5.88;;
42294;SDS011;27947;47.556;18.718;2022-10-15T05:49:03;9.98;;;5.55;;
42294;SDS011;27947;47.556;18.718;2022-10-15T05:51:38;15.75;;;6.15;;
42294;SDS011;27947;47.556;18.718;2022-10-15T05:54:08;11.57;;;5.63;;
42294;SDS011;27947;47.556;18.718;2022-10-15T05:56:33;11.90;;;5.72;;
42294;SDS011;27947;47.556;18.718;2022-10-15T05:58:59;10.15;;;5.43;;
42294;SDS011;27947;47.556;18.718;2022-10-15T06:01:26;12.95;;;6.18;;
42294;SDS011;27947;47.556;18.718;2022-10-15T06:03:51;11.73;;;5.55;;
42294;SDS011;27947;47.556;18.718;2022-10-15T06:06:17;10.32;;;5.10;;
42294;SDS011;27947;47.556;18.718;2022-10-15T06:08:43;10.10;;;5.32;;
42294;SDS011;27947;47.556;18.718;2022-10-15T06:11:08;13.63;;;5.78;;
42294;SDS011;27947;47.556;18.718;2022-10-15T06:13:34;19.20;;;6.25;;
42294;SDS011;27947;47.556;18.718;2022-10-15T06:16:02;10.25;;;5.32;;
42294;SDS011;27947;47.556;18.718;2022-10-15T06:18:27;13.95;;;5.63;;
42294;SDS011;27947;47.556;18.718;2022-10-15T06:20:53;15.30;;;6.43;;
42294;SDS011;27947;47.556;18.718;2022-10-15T06:23:19;14.68;;;5.32;;
42294;SDS011;27947;47.556;18.718;2022-10-15T06:25:44;10.88;;;6.47;;
42294;SDS011;27947;47.556;18.718;2022-10-15T06:28:09;11.57;;;5.93;;
42294;SDS011;27947;47.556;18.718;2022-10-15T06:30:39;11.88;;;5.38;;
42294;SDS011;27947;47.556;18.718;2022-10-15T06:33:05;11.80;;;5.05;;
42294;SDS011;27947;47.556;18.718;2022-10-15T06:35:30;16.60;;;5.80;;
42294;SDS011;27947;47.556;18.718;2022-10-15T06:38:02;15.63;;;5.88;;
42294;SDS011;27947;47.556;18.718;2022-10-15T06:40:27;10.98;;;5.97;;
42294;SDS011;27947;47.556;18.718;2022-10-15T06:42:53;15.32;;;6.20;;
42294;SDS011;27947;47.556;18.718;2022-10-15T06:45:18;17.00;;;6.50;;
42294;SDS011;27947;47.556;18.718;2022-10-15T06:47:43;13.52;;;5.93;;
42294;SDS011;27947;47.556;18.718;2022-10-15T06:50:09;11.45;;;5.15;;
42294;SDS011;27947;47.556;18.718;2022-10-15T06:52:35;13.80;;;5.82;;
42294;SDS011;27947;47.556;18.718;2022-10-15T06:55:01;13.18;;;6.28;;
42294;SDS011;27947;47.556;18.718;2022-10-15T06:57:26;12.95;;;6.28;;
42294;SDS011;27947;47.556;18.718;2022-10-15T06:59:52;11.38;;;5.75;;
42294;SDS011;27947;47.556;18.718;2022-10-15T07:02:17;14.88;;;7.10;;
42294;SDS011;27947;47.556;18.718;2022-10-15T07:04:46;12.95;;;6.07;;
42294;SDS011;27947;47.556;18.718;2022-10-15T07:07:16;11.65;;;5.80;;
42294;SDS011;27947;47.556;18.718;2022-10-15T07:09:41;16.13;;;7.32;;
42294;SDS011;27947;47.556;18.718;2022-10-15T07:12:07;14.00;;;6.50;;
42294;SDS011;27947;47.556;18.718;2022-10-15T07:14:32;13.50;;;6.43;;
42294;SDS011;27947;47.556;18.718;2022-10-15T07:16:58;12.13;;;5.78;;
42294;SDS011;27947;47.556;18.718;2022-10-15T07:19:23;11.38;;;5.70;;
42294;SDS011;27947;47.556;18.718;2022-10-15T07:21:49;12.43;;;6.45;;
42294;SDS011;27947;47.556;18.718;2022-10-15T07:24:16;14.00;;;6.28;;
42294;SDS011;27947;47.556;18.718;2022-10-15T07:26:41;14.27;;;5.90;;
42294;SDS011;27947;47.556;18.718;2022-10-15T07:29:07;9.23;;;5.45;;
42294;SDS011;27947;47.556;18.718;2022-10-15T07:31:32;11.18;;;5.40;;
42294;SDS011;27947;47.556;18.718;2022-10-15T07:33:58;14.65;;;6.00;;
42294;SDS011;27947;47.556;18.718;2022-10-15T07:36:23;10.52;;;4.90;;
42294;SDS011;27947;47.556;18.718;2022-10-15T07:38:49;10.75;;;5.18;;
42294;SDS011;27947;47.556;18.718;2022-10-15T07:41:14;11.98;;;5.25;;
42294;SDS011;27947;47.556;18.718;2022-10-15T07:43:40;12.45;;;5.07;;
42294;SDS011;27947;47.556;18.718;2022-10-15T07:46:06;9.00;;;4.40;;
42294;SDS011;27947;47.556;18.718;2022-10-15T07:48:31;8.73;;;4.32;;
42294;SDS011;27947;47.556;18.718;2022-10-15T07:51:00;8.15;;;4.50;;
42294;SDS011;27947;47.556;18.718;2022-10-15T07:53:26;9.43;;;4.97;;
42294;SDS011;27947;47.556;18.718;2022-10-15T07:55:57;7.55;;;3.83;;
42294;SDS011;27947;47.556;18.718;2022-10-15T07:58:26;6.32;;;4.00;;
42294;SDS011;27947;47.556;18.718;2022-10-15T08:00:59;7.60;;;3.75;;
42294;SDS011;27947;47.556;18.718;2022-10-15T08:03:25;7.82;;;4.10;;
42294;SDS011;27947;47.556;18.718;2022-10-15T08:05:50;6.90;;;4.30;;
42294;SDS011;27947;47.556;18.718;2022-10-15T08:08:19;9.27;;;5.28;;
42294;SDS011;27947;47.556;18.718;2022-10-15T08:10:45;9.40;;;4.95;;
42294;SDS011;27947;47.556;18.718;2022-10-15T08:13:11;16.77;;;7.97;;
42294;SDS011;27947;47.556;18.718;2022-10-15T08:15:39;24.08;;;10.35;;
42294;SDS011;27947;47.556;18.718;2022-10-15T08:18:05;14.93;;;7.15;;
42294;SDS011;27947;47.556;18.718;2022-10-15T08:20:30;9.00;;;4.70;;
42294;SDS011;27947;47.556;18.718;2022-10-15T08:22:55;11.07;;;4.82;;
42294;SDS011;27947;47.556;18.718;2022-10-15T08:25:21;9.13;;;5.03;;
42294;SDS011;27947;47.556;18.718;2022-10-15T08:27:46;10.45;;;4.15;;
42294;SDS011;27947;47.556;18.718;2022-10-15T08:30:12;8.30;;;4.50;;
42294;SDS011;27947;47.556;18.718;2022-10-15T08:32:37;8.55;;;4.38;;
42294;SDS011;27947;47.556;18.718;2022-10-15T08:35:02;7.57;;;3.38;;
42294;SDS011;27947;47.556;18.718;2022-10-15T08:37:30;9.82;;;4.28;;
42294;SDS011;27947;47.556;18.718;2022-10-15T08:39:56;8.25;;;4.30;;
42294;SDS011;27947;47.556;18.718;2022-10-15T08:42:24;8.80;;;4.68;;
42294;SDS011;27947;47.556;18.718;2022-10-15T08:44:54;13.37;;;4.50;;
42294;SDS011;27947;47.556;18.718;2022-10-15T08:47:33;6.57;;;4.10;;
42294;SDS011;27947;47.556;18.718;2022-10-15T08:50:00;12.20;;;4.10;;
42294;SDS011;27947;47.556;18.718;2022-10-15T08:52:46;8.57;;;4.70;;
42294;SDS011;27947;47.556;18.718;2022-10-15T08:55:13;8.93;;;4.40;;
42294;SDS011;27947;47.556;18.718;2022-10-15T08:57:48;9.55;;;4.05;;
42294;SDS011;27947;47.556;18.718;2022-10-15T09:02:47;8.88;;;4.30;;
42294;SDS011;27947;47.556;18.718;2022-10-15T09:10:39;8.30;;;4.90;;
42294;SDS011;27947;47.556;18.718;2022-10-15T09:15:50;7.57;;;3.60;;
42294;SDS011;27947;47.556;18.718;2022-10-15T09:18:21;7.15;;;3.50;;
42294;SDS011;27947;47.556;18.718;2022-10-15T09:20:47;6.97;;;4.45;;
42294;SDS011;27947;47.556;18.718;2022-10-15T09:23:17;9.27;;;4.15;;
42294;SDS011;27947;47.556;18.718;2022-10-15T09:25:44;11.55;;;4.28;;
42294;SDS011;27947;47.556;18.718;2022-10-15T09:28:13;7.43;;;3.70;;
42294;SDS011;27947;47.556;18.718;2022-10-15T09:30:47;5.50;;;3.10;;
42294;SDS011;27947;47.556;18.718;2022-10-15T09:41:19;8.40;;;3.55;;
42294;SDS011;27947;47.556;18.718;2022-10-15T09:43:48;7.18;;;3.42;;
42294;SDS011;27947;47.556;18.718;2022-10-15T09:46:13;4.50;;;2.63;;
42294;SDS011;27947;47.556;18.718;2022-10-15T09:48:40;7.13;;;3.30;;
42294;SDS011;27947;47.556;18.718;2022-10-15T09:51:24;9.45;;;3.47;;
42294;SDS011;27947;47.556;18.718;2022-10-15T09:56:35;5.18;;;2.92;;
42294;SDS011;27947;47.556;18.718;2022-10-15T09:59:00;4.13;;;2.47;;
42294;SDS011;27947;47.556;18.718;2022-10-15T10:01:27;4.18;;;2.50;;
42294;SDS011;27947;47.556;18.718;2022-10-15T10:03:53;5.18;;;2.80;;
42294;SDS011;27947;47.556;18.718;2022-10-15T10:06:20;5.78;;;3.17;;
42294;SDS011;27947;47.556;18.718;2022-10-15T10:08:53;5.28;;;2.40;;
42294;SDS011;27947;47.556;18.718;2022-10-15T10:11:21;6.95;;;3.78;;
42294;SDS011;27947;47.556;18.718;2022-10-15T10:16:12;6.97;;;3.78;;
42294;SDS011;27947;47.556;18.718;2022-10-15T10:18:38;8.43;;;3.40;;
42294;SDS011;27947;47.556;18.718;2022-10-15T10:21:05;6.60;;;3.10;;
42294;SDS011;27947;47.556;18.718;2022-10-15T10:23:35;8.00;;;3.50;;
42294;SDS011;27947;47.556;18.718;2022-10-15T10:26:05;4.75;;;2.97;;
42294;SDS011;27947;47.556;18.718;2022-10-15T10:31:15;4.82;;;2.42;;
42294;SDS011;27947;47.556;18.718;2022-10-15T10:36:06;5.80;;;3.22;;
42294;SDS011;27947;47.556;18.718;2022-10-15T10:38:33;5.03;;;2.60;;
42294;SDS011;27947;47.556;18.718;2022-10-15T10:41:03;5.38;;;2.65;;
42294;SDS011;27947;47.556;18.718;2022-10-15T10:43:37;6.35;;;3.05;;
42294;SDS011;27947;47.556;18.718;2022-10-15T10:46:04;6.78;;;2.85;;
42294;SDS011;27947;47.556;18.718;2022-10-15T10:51:07;5.22;;;3.50;;
42294;SDS011;27947;47.556;18.718;2022-10-15T10:53:45;5.32;;;2.53;;
42294;SDS011;27947;47.556;18.718;2022-10-15T10:56:12;4.72;;;2.78;;
42294;SDS011;27947;47.556;18.718;2022-10-15T10:58:39;3.58;;;2.17;;
42294;SDS011;27947;47.556;18.718;2022-10-15T11:01:05;3.92;;;2.58;;
42294;SDS011;27947;47.556;18.718;2022-10-15T11:03:45;5.05;;;2.28;;
42294;SDS011;27947;47.556;18.718;2022-10-15T11:06:20;7.68;;;2.90;;
42294;SDS011;27947;47.556;18.718;2022-10-15T11:11:21;4.63;;;2.55;;
42294;SDS011;27947;47.556;18.718;2022-10-15T11:13:59;3.70;;;2.15;;
42294;SDS011;27947;47.556;18.718;2022-10-15T11:16:33;4.32;;;2.58;;
42294;SDS011;27947;47.556;18.718;2022-10-15T11:42:28;5.85;;;2.35;;
42294;SDS011;27947;47.556;18.718;2022-10-15T11:47:40;4.25;;;2.28;;
42294;SDS011;27947;47.556;18.718;2022-10-15T11:50:16;3.70;;;1.90;;
42294;SDS011;27947;47.556;18.718;2022-10-15T11:55:27;3.95;;;2.05;;
42294;SDS011;27947;47.556;18.718;2022-10-15T11:57:57;2.50;;;1.65;;
42294;SDS011;27947;47.556;18.718;2022-10-15T12:00:30;3.50;;;1.75;;
42294;SDS011;27947;47.556;18.718;2022-10-15T12:02:59;3.95;;;1.77;;
42294;SDS011;27947;47.556;18.718;2022-10-15T12:05:27;5.10;;;2.42;;
42294;SDS011;27947;47.556;18.718;2022-10-15T12:07:55;3.45;;;1.70;;
42294;SDS011;27947;47.556;18.718;2022-10-15T12:13:08;3.47;;;2.13;;
42294;SDS011;27947;47.556;18.718;2022-10-15T12:20:47;3.72;;;1.70;;
42294;SDS011;27947;47.556;18.718;2022-10-15T12:25:48;11.82;;;4.00;;
42294;SDS011;27947;47.556;18.718;2022-10-15T12:28:15;2.92;;;1.67;;
42294;SDS011;27947;47.556;18.718;2022-10-15T12:30:41;1.98;;;1.70;;
42294;SDS011;27947;47.556;18.718;2022-10-15T12:35:55;2.20;;;1.38;;
42294;SDS011;27947;47.556;18.718;2022-10-15T12:38:24;3.53;;;1.92;;
42294;SDS011;27947;47.556;18.718;2022-10-15T12:40:55;2.03;;;1.35;;
42294;SDS011;27947;47.556;18.718;2022-10-15T12:43:20;1.98;;;1.33;;
42294;SDS011;27947;47.556;18.718;2022-10-15T12:45:56;4.78;;;1.77;;
42294;SDS011;27947;47.556;18.718;2022-10-15T12:53:40;5.90;;;1.50;;
42294;SDS011;27947;47.556;18.718;2022-10-15T12:58:40;3.90;;;1.70;;
42294;SDS011;27947;47.556;18.718;2022-10-15T13:03:58;2.58;;;1.70;;
42294;SDS011;27947;47.556;18.718;2022-10-15T13:06:30;2.05;;;1.52;;
42294;SDS011;27947;47.556;18.718;2022-10-15T13:16:46;4.47;;;1.30;;
42294;SDS011;27947;47.556;18.718;2022-10-15T13:19:28;3.60;;;1.65;;
42294;SDS011;27947;47.556;18.718;2022-10-15T13:21:56;3.70;;;1.80;;
42294;SDS011;27947;47.556;18.718;2022-10-15T13:24:27;2.95;;;1.40;;
42294;SDS011;27947;47.556;18.718;2022-10-15T13:26:53;3.30;;;1.80;;
42294;SDS011;27947;47.556;18.718;2022-10-15T13:29:23;2.22;;;1.33;;
42294;SDS011;27947;47.556;18.718;2022-10-15T13:31:49;2.17;;;1.50;;
42294;SDS011;27947;47.556;18.718;2022-10-15T13:34:26;2.05;;;1.27;;
42294;SDS011;27947;47.556;18.718;2022-10-15T13:36:52;1.60;;;1.15;;
42294;SDS011;27947;47.556;18.718;2022-10-15T13:39:20;2.38;;;1.38;;
42294;SDS011;27947;47.556;18.718;2022-10-15T13:41:46;1.98;;;1.42;;
42294;SDS011;27947;47.556;18.718;2022-10-15T13:44:19;2.00;;;1.40;;
42294;SDS011;27947;47.556;18.718;2022-10-15T13:46:45;2.95;;;1.67;;
42294;SDS011;27947;47.556;18.718;2022-10-15T13:49:11;3.25;;;1.75;;
42294;SDS011;27947;47.556;18.718;2022-10-15T13:51:38;3.95;;;1.80;;
42294;SDS011;27947;47.556;18.718;2022-10-15T13:54:23;2.85;;;1.67;;
42294;SDS011;27947;47.556;18.718;2022-10-15T13:59:18;1.90;;;1.17;;
42294;SDS011;27947;47.556;18.718;2022-10-15T14:01:45;2.05;;;1.23;;
42294;SDS011;27947;47.556;18.718;2022-10-15T14:04:15;2.25;;;1.40;;
42294;SDS011;27947;47.556;18.718;2022-10-15T14:06:40;5.32;;;2.13;;
42294;SDS011;27947;47.556;18.718;2022-10-15T14:09:21;26.23;;;2.50;;
42294;SDS011;27947;47.556;18.718;2022-10-15T14:11:51;2.22;;;1.55;;
42294;SDS011;27947;47.556;18.718;2022-10-15T14:16:58;2.22;;;1.60;;
42294;SDS011;27947;47.556;18.718;2022-10-15T14:19:24;4.18;;;1.40;;
42294;SDS011;27947;47.556;18.718;2022-10-15T14:21:54;2.25;;;1.48;;
42294;SDS011;27947;47.556;18.718;2022-10-15T14:24:20;2.33;;;1.60;;
42294;SDS011;27947;47.556;18.718;2022-10-15T14:26:46;3.65;;;1.80;;
42294;SDS011;27947;47.556;18.718;2022-10-15T14:29:25;2.72;;;1.52;;
42294;SDS011;27947;47.556;18.718;2022-10-15T14:31:51;3.38;;;1.70;;
42294;SDS011;27947;47.556;18.718;2022-10-15T14:34:38;3.45;;;1.48;;
42294;SDS011;27947;47.556;18.718;2022-10-15T14:39:50;5.70;;;1.98;;
42294;SDS011;27947;47.556;18.718;2022-10-15T14:42:26;3.67;;;1.50;;
42294;SDS011;27947;47.556;18.718;2022-10-15T14:44:52;5.05;;;1.60;;
42294;SDS011;27947;47.556;18.718;2022-10-15T14:47:25;4.00;;;1.45;;
42294;SDS011;27947;47.556;18.718;2022-10-15T14:49:54;2.67;;;1.55;;
42294;SDS011;27947;47.556;18.718;2022-10-15T14:52:20;4.05;;;1.77;;
42294;SDS011;27947;47.556;18.718;2022-10-15T14:54:56;2.45;;;1.42;;
42294;SDS011;27947;47.556;18.718;2022-10-15T14:57:24;3.30;;;1.40;;
42294;SDS011;27947;47.556;18.718;2022-10-15T14:59:51;4.10;;;1.77;;
42294;SDS011;27947;47.556;18.718;2022-10-15T15:02:16;3.67;;;1.48;;
42294;SDS011;27947;47.556;18.718;2022-10-15T15:04:44;4.43;;;1.98;;
42294;SDS011;27947;47.556;18.718;2022-10-15T15:07:15;3.88;;;2.28;;
42294;SDS011;27947;47.556;18.718;2022-10-15T15:09:41;3.55;;;2.00;;
42294;SDS011;27947;47.556;18.718;2022-10-15T15:12:27;2.78;;;1.40;;
42294;SDS011;27947;47.556;18.718;2022-10-15T15:14:52;5.43;;;2.78;;
42294;SDS011;27947;47.556;18.718;2022-10-15T15:17:22;5.38;;;2.30;;
42294;SDS011;27947;47.556;18.718;2022-10-15T15:19:49;8.20;;;2.60;;
42294;SDS011;27947;47.556;18.718;2022-10-15T15:22:15;5.75;;;2.00;;
42294;SDS011;27947;47.556;18.718;2022-10-15T15:24:41;7.05;;;2.80;;
42294;SDS011;27947;47.556;18.718;2022-10-15T15:27:09;3.15;;;1.90;;
42294;SDS011;27947;47.556;18.718;2022-10-15T15:29:37;2.75;;;1.58;;
42294;SDS011;27947;47.556;18.718;2022-10-15T15:32:02;3.60;;;1.92;;
42294;SDS011;27947;47.556;18.718;2022-10-15T15:34:28;3.97;;;2.30;;
42294;SDS011;27947;47.556;18.718;2022-10-15T15:36:53;4.75;;;1.80;;
42294;SDS011;27947;47.556;18.718;2022-10-15T15:39:18;3.67;;;2.03;;
42294;SDS011;27947;47.556;18.718;2022-10-15T15:41:44;3.78;;;1.92;;
42294;SDS011;27947;47.556;18.718;2022-10-15T15:44:12;4.30;;;2.08;;
42294;SDS011;27947;47.556;18.718;2022-10-15T15:46:37;5.63;;;2.17;;
42294;SDS011;27947;47.556;18.718;2022-10-15T15:49:02;10.88;;;3.85;;
42294;SDS011;27947;47.556;18.718;2022-10-15T15:51:28;9.10;;;3.65;;
42294;SDS011;27947;47.556;18.718;2022-10-15T15:53:54;9.05;;;2.45;;
42294;SDS011;27947;47.556;18.718;2022-10-15T15:56:20;6.30;;;2.80;;
42294;SDS011;27947;47.556;18.718;2022-10-15T15:58:46;6.30;;;2.45;;
42294;SDS011;27947;47.556;18.718;2022-10-15T16:01:14;7.55;;;3.17;;
42294;SDS011;27947;47.556;18.718;2022-10-15T16:03:39;5.18;;;2.60;;
42294;SDS011;27947;47.556;18.718;2022-10-15T16:06:05;5.15;;;2.63;;
42294;SDS011;27947;47.556;18.718;2022-10-15T16:08:31;5.03;;;2.40;;
42294;SDS011;27947;47.556;18.718;2022-10-15T16:10:59;3.20;;;1.83;;
42294;SDS011;27947;47.556;18.718;2022-10-15T16:13:25;4.25;;;2.30;;
42294;SDS011;27947;47.556;18.718;2022-10-15T16:15:50;5.18;;;2.35;;
42294;SDS011;27947;47.556;18.718;2022-10-15T16:18:15;4.53;;;2.35;;
42294;SDS011;27947;47.556;18.718;2022-10-15T16:20:40;8.13;;;2.58;;
42294;SDS011;27947;47.556;18.718;2022-10-15T16:23:06;5.05;;;2.40;;
42294;SDS011;27947;47.556;18.718;2022-10-15T16:25:31;2.65;;;1.58;;
42294;SDS011;27947;47.556;18.718;2022-10-15T16:27:57;3.53;;;1.88;;
42294;SDS011;27947;47.556;18.718;2022-10-15T16:30:25;4.15;;;2.30;;
42294;SDS011;27947;47.556;18.718;2022-10-15T16:32:51;4.85;;;2.20;;
42294;SDS011;27947;47.556;18.718;2022-10-15T16:35:16;3.40;;;1.98;;
42294;SDS011;27947;47.556;18.718;2022-10-15T16:37:42;4.53;;;1.95;;
42294;SDS011;27947;47.556;18.718;2022-10-15T16:40:07;4.53;;;2.45;;
42294;SDS011;27947;47.556;18.718;2022-10-15T16:42:33;4.38;;;1.92;;
42294;SDS011;27947;47.556;18.718;2022-10-15T16:44:58;2.83;;;2.00;;